sensor_id;sensor_type;location;lat;lon;timestamp;pressure;altitude;pressure_sealevel;temperature;humidity
51807;BME280;37865;51.304;9.536;2023-10-09T00:02:02;100408.84;;;12.33;93.60
51807;BME280;37865;51.304;9.536;2023-10-09T00:04:31;100405.22;;;12.27;93.96
51807;BME280;37865;51.304;9.536;2023-10-09T00:06:56;100405.97;;;12.23;93.82
51807;BME280;37865;51.304;9.536;2023-10-09T00:09:24;100406.72;;;12.18;95.41
51807;BME280;37865;51.304;9.536;2023-10-09T00:11:50;100405.88;;;12.18;94.34
51807;BME280;37865;51.304;9.536;2023-10-09T00:14:22;100396.19;;;12.10;94.47
51807;BME280;37865;51.304;9.536;2023-10-09T00:16:47;100404.56;;;12.03;95.02
51807;BME280;37865;51.304;9.536;2023-10-09T00:19:14;100404.25;;;12.00;95.29
51807;BME280;37865;51.304;9.536;2023-10-09T00:21:46;100399.25;;;11.97;95.77
51807;BME280;37865;51.304;9.536;2023-10-09T00:24:12;100398.69;;;11.95;96.13
51807;BME280;37865;51.304;9.536;2023-10-09T00:26:50;100406.22;;;11.88;96.28
51807;BME280;37865;51.304;9.536;2023-10-09T00:29:16;100400.66;;;11.83;96.75
51807;BME280;37865;51.304;9.536;2023-10-09T00:31:50;100402.25;;;11.79;96.93
51807;BME280;37865;51.304;9.536;2023-10-09T00:34:16;100400.50;;;11.73;96.96
51807;BME280;37865;51.304;9.536;2023-10-09T00:36:46;100398.50;;;11.68;96.85
51807;BME280;37865;51.304;9.536;2023-10-09T00:39:18;100398.63;;;11.62;97.63
51807;BME280;37865;51.304;9.536;2023-10-09T00:41:48;100398.97;;;11.65;98.21
51807;BME280;37865;51.304;9.536;2023-10-09T00:44:13;100400.03;;;11.64;98.22
51807;BME280;37865;51.304;9.536;2023-10-09T00:46:39;100398.16;;;11.65;98.20
51807;BME280;37865;51.304;9.536;2023-10-09T00:49:07;100389.63;;;11.61;98.39
51807;BME280;37865;51.304;9.536;2023-10-09T00:51:35;100389.84;;;11.60;98.35
51807;BME280;37865;51.304;9.536;2023-10-09T00:54:05;100382.06;;;11.52;98.52
51807;BME280;37865;51.304;9.536;2023-10-09T00:56:34;100373.44;;;11.43;98.85
51807;BME280;37865;51.304;9.536;2023-10-09T00:59:08;100381.56;;;11.38;99.16
51807;BME280;37865;51.304;9.536;2023-10-09T01:01:35;100372.69;;;11.31;99.11
51807;BME280;37865;51.304;9.536;2023-10-09T01:04:02;100364.31;;;11.21;99.04
51807;BME280;37865;51.304;9.536;2023-10-09T01:06:40;100369.06;;;11.14;99.36
51807;BME280;37865;51.304;9.536;2023-10-09T01:09:12;100365.41;;;11.08;99.64
51807;BME280;37865;51.304;9.536;2023-10-09T01:11:39;100354.91;;;11.00;99.78
51807;BME280;37865;51.304;9.536;2023-10-09T01:14:12;100345.19;;;10.93;100.00
51807;BME280;37865;51.304;9.536;2023-10-09T01:16:38;100340.22;;;10.90;100.00
51807;BME280;37865;51.304;9.536;2023-10-09T01:19:06;100335.59;;;10.90;100.00
51807;BME280;37865;51.304;9.536;2023-10-09T01:21:38;100321.00;;;10.96;100.00
51807;BME280;37865;51.304;9.536;2023-10-09T01:24:04;100327.03;;;10.98;100.00
51807;BME280;37865;51.304;9.536;2023-10-09T01:26:39;100334.13;;;10.99;100.00
51807;BME280;37865;51.304;9.536;2023-10-09T01:29:08;100324.50;;;11.08;100.00
51807;BME280;37865;51.304;9.536;2023-10-09T01:31:39;100330.28;;;11.12;100.00
51807;BME280;37865;51.304;9.536;2023-10-09T01:34:09;100337.16;;;11.14;100.00
51807;BME280;37865;51.304;9.536;2023-10-09T01:36:41;100336.09;;;11.15;100.00
51807;BME280;37865;51.304;9.536;2023-10-09T01:39:06;100339.63;;;11.16;100.00
51807;BME280;37865;51.304;9.536;2023-10-09T01:41:49;100337.66;;;11.11;100.00
51807;BME280;37865;51.304;9.536;2023-10-09T01:44:17;100327.69;;;11.05;100.00
51807;BME280;37865;51.304;9.536;2023-10-09T01:46:42;100325.72;;;11.01;100.00
51807;BME280;37865;51.304;9.536;2023-10-09T01:49:11;100316.13;;;10.98;100.00
51807;BME280;37865;51.304;9.536;2023-10-09T01:51:42;100316.69;;;11.00;100.00
51807;BME280;37865;51.304;9.536;2023-10-09T01:54:08;100311.25;;;11.00;100.00
51807;BME280;37865;51.304;9.536;2023-10-09T01:56:34;100310.06;;;10.96;100.00
51807;BME280;37865;51.304;9.536;2023-10-09T01:59:04;100302.63;;;10.92;100.00
51807;BME280;37865;51.304;9.536;2023-10-09T02:01:31;100304.44;;;10.86;100.00
51807;BME280;37865;51.304;9.536;2023-10-09T02:03:57;100304.66;;;10.85;100.00
51807;BME280;37865;51.304;9.536;2023-10-09T02:06:30;100291.00;;;10.85;100.00
51807;BME280;37865;51.304;9.536;2023-10-09T02:08:57;100282.59;;;10.86;100.00
51807;BME280;37865;51.304;9.536;2023-10-09T02:11:22;100280.38;;;11.00;100.00
51807;BME280;37865;51.304;9.536;2023-10-09T02:14:06;100280.09;;;11.13;100.00
51807;BME280;37865;51.304;9.536;2023-10-09T02:16:44;100266.94;;;11.26;100.00
51807;BME280;37865;51.304;9.536;2023-10-09T02:19:09;100277.28;;;11.41;100.00
51807;BME280;37865;51.304;9.536;2023-10-09T02:21:55;100282.91;;;11.51;100.00
51807;BME280;37865;51.304;9.536;2023-10-09T02:24:22;100287.38;;;11.57;100.00
51807;BME280;37865;51.304;9.536;2023-10-09T02:27:05;100281.53;;;11.65;100.00
51807;BME280;37865;51.304;9.536;2023-10-09T02:29:34;100278.06;;;11.70;100.00
51807;BME280;37865;51.304;9.536;2023-10-09T02:32:03;100285.75;;;11.73;100.00
51807;BME280;37865;51.304;9.536;2023-10-09T02:34:38;100279.19;;;11.74;100.00
51807;BME280;37865;51.304;9.536;2023-10-09T02:37:03;100274.94;;;11.78;100.00
51807;BME280;37865;51.304;9.536;2023-10-09T02:39:37;100280.19;;;11.84;100.00
51807;BME280;37865;51.304;9.536;2023-10-09T02:42:08;100284.91;;;11.89;100.00
51807;BME280;37865;51.304;9.536;2023-10-09T02:44:40;100296.19;;;11.92;100.00
51807;BME280;37865;51.304;9.536;2023-10-09T02:47:11;100289.94;;;11.97;100.00
51807;BME280;37865;51.304;9.536;2023-10-09T02:49:43;100295.50;;;12.02;100.00
51807;BME280;37865;51.304;9.536;2023-10-09T02:52:08;100296.66;;;12.06;100.00
51807;BME280;37865;51.304;9.536;2023-10-09T02:54:35;100294.78;;;12.11;100.00
51807;BME280;37865;51.304;9.536;2023-10-09T02:57:01;100287.50;;;12.17;100.00
51807;BME280;37865;51.304;9.536;2023-10-09T02:59:32;100293.28;;;12.21;100.00
51807;BME280;37865;51.304;9.536;2023-10-09T03:01:58;100282.09;;;12.22;100.00
51807;BME280;37865;51.304;9.536;2023-10-09T03:04:27;100282.69;;;12.24;100.00
51807;BME280;37865;51.304;9.536;2023-10-09T03:06:59;100270.41;;;12.27;100.00
51807;BME280;37865;51.304;9.536;2023-10-09T03:09:24;100269.09;;;12.29;100.00
51807;BME280;37865;51.304;9.536;2023-10-09T03:12:02;100261.72;;;12.30;100.00
51807;BME280;37865;51.304;9.536;2023-10-09T03:14:28;100259.56;;;12.32;100.00
51807;BME280;37865;51.304;9.536;2023-10-09T03:16:54;100264.00;;;12.38;100.00
51807;BME280;37865;51.304;9.536;2023-10-09T03:19:19;100256.94;;;12.42;100.00
51807;BME280;37865;51.304;9.536;2023-10-09T03:21:44;100240.84;;;12.45;100.00
51807;BME280;37865;51.304;9.536;2023-10-09T03:24:11;100224.72;;;12.49;100.00
51807;BME280;37865;51.304;9.536;2023-10-09T03:26:37;100228.59;;;12.53;100.00
51807;BME280;37865;51.304;9.536;2023-10-09T03:29:02;100221.88;;;12.60;100.00
51807;BME280;37865;51.304;9.536;2023-10-09T03:31:31;100216.78;;;12.69;100.00
51807;BME280;37865;51.304;9.536;2023-10-09T03:33:56;100215.47;;;12.76;100.00
51807;BME280;37865;51.304;9.536;2023-10-09T03:36:22;100215.84;;;12.85;100.00
51807;BME280;37865;51.304;9.536;2023-10-09T03:38:51;100214.78;;;12.91;100.00
51807;BME280;37865;51.304;9.536;2023-10-09T03:41:19;100208.00;;;12.99;100.00
51807;BME280;37865;51.304;9.536;2023-10-09T03:43:45;100210.56;;;13.05;100.00
51807;BME280;37865;51.304;9.536;2023-10-09T03:46:11;100211.47;;;13.11;100.00
51807;BME280;37865;51.304;9.536;2023-10-09T03:49:00;100222.19;;;13.17;100.00
51807;BME280;37865;51.304;9.536;2023-10-09T03:51:28;100209.63;;;13.21;100.00
51807;BME280;37865;51.304;9.536;2023-10-09T03:53:54;100222.28;;;13.27;100.00
51807;BME280;37865;51.304;9.536;2023-10-09T03:56:19;100227.78;;;13.32;100.00
51807;BME280;37865;51.304;9.536;2023-10-09T03:58:47;100220.13;;;13.34;100.00
51807;BME280;37865;51.304;9.536;2023-10-09T04:01:17;100217.72;;;13.38;100.00
51807;BME280;37865;51.304;9.536;2023-10-09T04:03:55;100215.53;;;13.40;100.00
51807;BME280;37865;51.304;9.536;2023-10-09T04:06:23;100213.59;;;13.40;100.00
51807;BME280;37865;51.304;9.536;2023-10-09T04:08:53;100219.09;;;13.40;100.00
51807;BME280;37865;51.304;9.536;2023-10-09T04:11:19;100206.22;;;13.41;100.00
51807;BME280;37865;51.304;9.536;2023-10-09T04:13:48;100203.22;;;13.42;100.00
51807;BME280;37865;51.304;9.536;2023-10-09T04:16:14;100218.84;;;13.42;100.00
51807;BME280;37865;51.304;9.536;2023-10-09T04:18:52;100207.88;;;13.42;100.00
51807;BME280;37865;51.304;9.536;2023-10-09T04:21:17;100205.94;;;13.42;100.00
51807;BME280;37865;51.304;9.536;2023-10-09T04:23:59;100200.47;;;13.42;100.00
51807;BME280;37865;51.304;9.536;2023-10-09T04:26:43;100204.31;;;13.41;100.00
51807;BME280;37865;51.304;9.536;2023-10-09T04:29:14;100192.25;;;13.42;100.00
51807;BME280;37865;51.304;9.536;2023-10-09T04:31:52;100195.56;;;13.44;100.00
51807;BME280;37865;51.304;9.536;2023-10-09T04:34:18;100193.91;;;13.43;100.00
51807;BME280;37865;51.304;9.536;2023-10-09T04:36:47;100193.91;;;13.43;100.00
51807;BME280;37865;51.304;9.536;2023-10-09T04:39:14;100192.00;;;13.44;100.00
51807;BME280;37865;51.304;9.536;2023-10-09T04:41:41;100196.38;;;13.45;100.00
51807;BME280;37865;51.304;9.536;2023-10-09T04:44:06;100196.38;;;13.45;100.00
51807;BME280;37865;51.304;9.536;2023-10-09T04:47:00;100196.38;;;13.45;100.00
51807;BME280;37865;51.304;9.536;2023-10-09T04:49:35;100186.00;;;13.47;100.00
51807;BME280;37865;51.304;9.536;2023-10-09T04:52:13;100189.28;;;13.49;100.00
51807;BME280;37865;51.304;9.536;2023-10-09T04:55:04;100193.44;;;13.51;100.00
51807;BME280;37865;51.304;9.536;2023-10-09T04:57:32;100191.25;;;13.53;100.00
51807;BME280;37865;51.304;9.536;2023-10-09T05:00:04;100184.41;;;13.56;100.00
51807;BME280;37865;51.304;9.536;2023-10-09T05:02:32;100175.94;;;13.57;100.00
51807;BME280;37865;51.304;9.536;2023-10-09T05:05:01;100186.88;;;13.57;100.00
51807;BME280;37865;51.304;9.536;2023-10-09T05:07:41;100182.25;;;13.58;100.00
51807;BME280;37865;51.304;9.536;2023-10-09T05:10:20;100181.41;;;13.57;100.00
51807;BME280;37865;51.304;9.536;2023-10-09T05:12:49;100178.38;;;13.59;100.00
51807;BME280;37865;51.304;9.536;2023-10-09T05:15:22;100180.34;;;13.63;100.00
51807;BME280;37865;51.304;9.536;2023-10-09T05:17:55;100176.81;;;13.68;100.00
51807;BME280;37865;51.304;9.536;2023-10-09T05:20:34;100180.38;;;13.68;100.00
51807;BME280;37865;51.304;9.536;2023-10-09T05:23:18;100181.78;;;13.71;100.00
51807;BME280;37865;51.304;9.536;2023-10-09T05:25:50;100183.97;;;13.74;100.00
51807;BME280;37865;51.304;9.536;2023-10-09T05:28:20;100183.69;;;13.76;100.00
51807;BME280;37865;51.304;9.536;2023-10-09T05:31:13;100183.47;;;13.77;100.00
51807;BME280;37865;51.304;9.536;2023-10-09T05:33:58;100187.56;;;13.80;100.00
51807;BME280;37865;51.304;9.536;2023-10-09T05:36:27;100189.50;;;13.84;100.00
51807;BME280;37865;51.304;9.536;2023-10-09T05:38:52;100192.28;;;13.89;100.00
51807;BME280;37865;51.304;9.536;2023-10-09T05:41:27;100188.19;;;13.92;100.00
51807;BME280;37865;51.304;9.536;2023-10-09T05:44:12;100181.09;;;13.96;100.00
51807;BME280;37865;51.304;9.536;2023-10-09T05:47:00;100187.94;;;13.98;100.00
51807;BME280;37865;51.304;9.536;2023-10-09T05:49:44;100185.50;;;14.02;100.00
51807;BME280;37865;51.304;9.536;2023-10-09T05:52:20;100185.78;;;14.05;100.00
51807;BME280;37865;51.304;9.536;2023-10-09T05:55:21;100192.38;;;14.09;100.00
51807;BME280;37865;51.304;9.536;2023-10-09T05:58:05;100190.19;;;14.11;100.00
51807;BME280;37865;51.304;9.536;2023-10-09T06:00:50;100196.50;;;14.12;100.00
51807;BME280;37865;51.304;9.536;2023-10-09T06:03:30;100199.81;;;14.14;100.00
51807;BME280;37865;51.304;9.536;2023-10-09T06:06:14;100199.53;;;14.15;100.00
51807;BME280;37865;51.304;9.536;2023-10-09T06:09:05;100207.25;;;14.18;100.00
51807;BME280;37865;51.304;9.536;2023-10-09T06:11:46;100220.16;;;14.23;100.00
51807;BME280;37865;51.304;9.536;2023-10-09T06:14:18;100217.97;;;14.25;100.00
51807;BME280;37865;51.304;9.536;2023-10-09T06:16:55;100216.59;;;14.27;100.00
51807;BME280;37865;51.304;9.536;2023-10-09T06:19:36;100218.00;;;14.30;100.00
51807;BME280;37865;51.304;9.536;2023-10-09T06:22:10;100221.31;;;14.32;100.00
51807;BME280;37865;51.304;9.536;2023-10-09T06:25:05;100224.59;;;14.34;100.00
51807;BME280;37865;51.304;9.536;2023-10-09T06:27:34;100232.03;;;14.38;100.00
51807;BME280;37865;51.304;9.536;2023-10-09T06:29:59;100224.09;;;14.42;100.00
51807;BME280;37865;51.304;9.536;2023-10-09T06:32:49;100229.88;;;14.45;100.00
51807;BME280;37865;51.304;9.536;2023-10-09T06:35:33;100234.25;;;14.46;100.00
51807;BME280;37865;51.304;9.536;2023-10-09T06:37:58;100239.78;;;14.52;100.00
51807;BME280;37865;51.304;9.536;2023-10-09T06:40:35;100238.16;;;14.56;100.00
51807;BME280;37865;51.304;9.536;2023-10-09T06:43:22;100245.28;;;14.62;100.00
51807;BME280;37865;51.304;9.536;2023-10-09T06:45:48;100249.44;;;14.64;100.00
51807;BME280;37865;51.304;9.536;2023-10-09T06:48:21;100255.19;;;14.68;99.60
51807;BME280;37865;51.304;9.536;2023-10-09T06:53:40;100263.19;;;14.74;99.26
51807;BME280;37865;51.304;9.536;2023-10-09T06:56:24;100267.31;;;14.82;99.33
51807;BME280;37865;51.304;9.536;2023-10-09T06:58:50;100262.94;;;14.86;99.11
51807;BME280;37865;51.304;9.536;2023-10-09T07:01:19;100264.31;;;14.88;98.64
51807;BME280;37865;51.304;9.536;2023-10-09T07:03:45;100258.81;;;14.88;98.67
51807;BME280;37865;51.304;9.536;2023-10-09T07:06:19;100260.47;;;14.89;98.17
51807;BME280;37865;51.304;9.536;2023-10-09T07:09:00;100254.72;;;14.91;98.26
51807;BME280;37865;51.304;9.536;2023-10-09T07:11:31;100251.41;;;14.94;98.02
51807;BME280;37865;51.304;9.536;2023-10-09T07:14:06;100268.44;;;14.96;97.58
51807;BME280;37865;51.304;9.536;2023-10-09T07:16:32;100251.97;;;14.96;97.72
51807;BME280;37865;51.304;9.536;2023-10-09T07:19:04;100261.03;;;14.96;97.64
51807;BME280;37865;51.304;9.536;2023-10-09T07:21:35;100264.88;;;15.00;97.66
51807;BME280;37865;51.304;9.536;2023-10-09T07:24:01;100253.63;;;15.07;97.08
51807;BME280;37865;51.304;9.536;2023-10-09T07:26:39;100245.97;;;15.19;96.69
51807;BME280;37865;51.304;9.536;2023-10-09T07:29:12;100241.28;;;15.29;96.19
51807;BME280;37865;51.304;9.536;2023-10-09T07:31:47;100248.44;;;15.41;95.70
51807;BME280;37865;51.304;9.536;2023-10-09T07:34:12;100254.53;;;15.53;95.03
51807;BME280;37865;51.304;9.536;2023-10-09T07:36:56;100264.97;;;15.66;94.49
51807;BME280;37865;51.304;9.536;2023-10-09T07:39:21;100266.34;;;15.78;94.34
51807;BME280;37865;51.304;9.536;2023-10-09T07:41:48;100267.41;;;15.92;93.81
51807;BME280;37865;51.304;9.536;2023-10-09T07:44:26;100273.47;;;15.99;93.06
51807;BME280;37865;51.304;9.536;2023-10-09T07:47:04;100264.63;;;16.07;92.53
51807;BME280;37865;51.304;9.536;2023-10-09T07:49:42;100267.91;;;16.15;92.16
51807;BME280;37865;51.304;9.536;2023-10-09T07:52:13;100284.13;;;16.21;91.89
51807;BME280;37865;51.304;9.536;2023-10-09T07:54:38;100287.41;;;16.28;91.61
51807;BME280;37865;51.304;9.536;2023-10-09T07:57:14;100281.88;;;16.38;91.17
51807;BME280;37865;51.304;9.536;2023-10-09T07:59:43;100302.22;;;16.42;90.48
51807;BME280;37865;51.304;9.536;2023-10-09T08:02:20;100304.44;;;16.45;89.59
51807;BME280;37865;51.304;9.536;2023-10-09T08:04:56;100288.19;;;16.49;89.54
51807;BME280;37865;51.304;9.536;2023-10-09T08:07:28;100286.25;;;16.54;89.16
51807;BME280;37865;51.304;9.536;2023-10-09T08:10:08;100291.78;;;16.49;88.39
51807;BME280;37865;51.304;9.536;2023-10-09T08:12:43;100280.47;;;16.46;88.16
51807;BME280;37865;51.304;9.536;2023-10-09T08:15:14;100271.94;;;16.47;87.88
51807;BME280;37865;51.304;9.536;2023-10-09T08:17:51;100278.03;;;16.49;87.88
51807;BME280;37865;51.304;9.536;2023-10-09T08:20:20;100278.81;;;16.55;87.70
51807;BME280;37865;51.304;9.536;2023-10-09T08:22:50;100276.31;;;16.58;86.91
51807;BME280;37865;51.304;9.536;2023-10-09T08:25:17;100276.28;;;16.68;87.07
51807;BME280;37865;51.304;9.536;2023-10-09T08:30:20;100267.38;;;16.86;85.97
51807;BME280;37865;51.304;9.536;2023-10-09T08:32:51;100268.16;;;16.92;85.86
51807;BME280;37865;51.304;9.536;2023-10-09T08:35:35;100262.66;;;16.97;85.41
51807;BME280;37865;51.304;9.536;2023-10-09T08:38:12;100262.31;;;17.04;85.45
51807;BME280;37865;51.304;9.536;2023-10-09T08:40:38;100267.25;;;17.07;84.94
51807;BME280;37865;51.304;9.536;2023-10-09T08:43:09;100270.53;;;17.09;85.00
51807;BME280;37865;51.304;9.536;2023-10-09T08:45:38;100268.09;;;17.07;84.71
51807;BME280;37865;51.304;9.536;2023-10-09T08:48:04;100266.16;;;17.08;84.52
51807;BME280;37865;51.304;9.536;2023-10-09T08:50:31;100254.53;;;17.16;84.30
51807;BME280;37865;51.304;9.536;2023-10-09T08:52:57;100259.75;;;17.17;84.01
51807;BME280;37865;51.304;9.536;2023-10-09T08:55:22;100236.56;;;17.18;83.53
51807;BME280;37865;51.304;9.536;2023-10-09T08:57:47;100235.19;;;17.21;83.32
51807;BME280;37865;51.304;9.536;2023-10-09T09:00:17;100234.56;;;17.29;82.92
51807;BME280;37865;51.304;9.536;2023-10-09T09:02:46;100246.13;;;17.31;82.46
51807;BME280;37865;51.304;9.536;2023-10-09T09:05:21;100245.28;;;17.35;82.13
51807;BME280;37865;51.304;9.536;2023-10-09T09:07:46;100240.63;;;17.31;82.18
51807;BME280;37865;51.304;9.536;2023-10-09T09:10:13;100235.09;;;17.31;82.18
51807;BME280;37865;51.304;9.536;2023-10-09T09:12:47;100231.25;;;17.32;81.91
51807;BME280;37865;51.304;9.536;2023-10-09T09:15:18;100236.25;;;17.25;82.24
51807;BME280;37865;51.304;9.536;2023-10-09T09:17:44;100250.63;;;17.22;82.26
51807;BME280;37865;51.304;9.536;2023-10-09T09:22:51;100258.38;;;17.15;82.78
51807;BME280;37865;51.304;9.536;2023-10-09T09:25:17;100258.69;;;17.13;83.20
51807;BME280;37865;51.304;9.536;2023-10-09T09:27:45;100252.91;;;17.10;83.31
51807;BME280;37865;51.304;9.536;2023-10-09T09:30:24;100257.31;;;17.11;83.48
51807;BME280;37865;51.304;9.536;2023-10-09T09:32:50;100249.34;;;17.09;83.70
51807;BME280;37865;51.304;9.536;2023-10-09T09:35:35;100263.66;;;17.11;83.90
51807;BME280;37865;51.304;9.536;2023-10-09T09:38:00;100255.91;;;17.13;84.04
51807;BME280;37865;51.304;9.536;2023-10-09T09:40:31;100254.25;;;17.17;84.07
51807;BME280;37865;51.304;9.536;2023-10-09T09:42:58;100258.91;;;17.22;83.93
51807;BME280;37865;51.304;9.536;2023-10-09T09:45:31;100256.09;;;17.27;84.00
51807;BME280;37865;51.304;9.536;2023-10-09T09:47:58;100259.13;;;17.30;83.83
51807;BME280;37865;51.304;9.536;2023-10-09T09:50:26;100259.84;;;17.41;83.31
51807;BME280;37865;51.304;9.536;2023-10-09T09:52:54;100241.63;;;17.45;83.25
51807;BME280;37865;51.304;9.536;2023-10-09T09:55:21;100264.75;;;17.49;82.87
51807;BME280;37865;51.304;9.536;2023-10-09T09:57:56;100256.19;;;17.55;83.06
51807;BME280;37865;51.304;9.536;2023-10-09T10:00:22;100259.19;;;17.59;82.47
51807;BME280;37865;51.304;9.536;2023-10-09T10:05:53;100255.59;;;17.58;82.61
51807;BME280;37865;51.304;9.536;2023-10-09T10:08:22;100251.38;;;17.66;82.39
51807;BME280;37865;51.304;9.536;2023-10-09T10:10:56;100248.28;;;17.73;82.20
51807;BME280;37865;51.304;9.536;2023-10-09T10:21:40;100203.38;;;17.96;80.80
51807;BME280;37865;51.304;9.536;2023-10-09T10:27:17;100203.25;;;18.06;80.50
51807;BME280;37865;51.304;9.536;2023-10-09T10:32:56;100190.22;;;18.11;79.88
51807;BME280;37865;51.304;9.536;2023-10-09T10:35:34;100195.75;;;18.11;79.81
51807;BME280;37865;51.304;9.536;2023-10-09T10:40:48;100188.97;;;18.22;79.61
51807;BME280;37865;51.304;9.536;2023-10-09T10:43:22;100185.28;;;18.32;79.37
51807;BME280;37865;51.304;9.536;2023-10-09T10:46:06;100193.72;;;18.40;79.16
51807;BME280;37865;51.304;9.536;2023-10-09T10:49:01;100198.28;;;18.55;78.86
51807;BME280;37865;51.304;9.536;2023-10-09T10:51:45;100188.50;;;18.63;78.20
51807;BME280;37865;51.304;9.536;2023-10-09T10:54:20;100186.78;;;18.67;78.18
51807;BME280;37865;51.304;9.536;2023-10-09T10:57:17;100188.66;;;18.71;78.17
51807;BME280;37865;51.304;9.536;2023-10-09T10:59:56;100182.75;;;18.78;77.95
51807;BME280;37865;51.304;9.536;2023-10-09T11:02:30;100183.34;;;18.75;78.02
51807;BME280;37865;51.304;9.536;2023-10-09T11:04:56;100180.06;;;18.73;78.00
51807;BME280;37865;51.304;9.536;2023-10-09T11:07:35;100164.72;;;18.62;77.90
51807;BME280;37865;51.304;9.536;2023-10-09T11:10:00;100157.88;;;18.59;77.98
51807;BME280;37865;51.304;9.536;2023-10-09T11:12:29;100155.28;;;18.68;78.05
51807;BME280;37865;51.304;9.536;2023-10-09T11:15:06;100158.47;;;18.75;77.95
51807;BME280;37865;51.304;9.536;2023-10-09T11:17:34;100123.44;;;18.70;77.39
51807;BME280;37865;51.304;9.536;2023-10-09T11:20:01;100148.09;;;18.67;77.63
51807;BME280;37865;51.304;9.536;2023-10-09T11:22:47;100153.47;;;18.77;77.43
51807;BME280;37865;51.304;9.536;2023-10-09T11:25:31;100134.78;;;18.87;77.15
51807;BME280;37865;51.304;9.536;2023-10-09T11:27:57;100123.66;;;18.92;76.73
51807;BME280;37865;51.304;9.536;2023-10-09T11:30:39;100131.66;;;18.94;76.88
51807;BME280;37865;51.304;9.536;2023-10-09T11:33:05;100144.41;;;19.08;76.47
51807;BME280;37865;51.304;9.536;2023-10-09T11:35:32;100142.69;;;19.26;76.04
51807;BME280;37865;51.304;9.536;2023-10-09T11:37:59;100151.09;;;19.40;75.38
51807;BME280;37865;51.304;9.536;2023-10-09T11:40:28;100150.91;;;19.50;74.84
51807;BME280;37865;51.304;9.536;2023-10-09T11:42:59;100145.81;;;19.57;74.66
51807;BME280;37865;51.304;9.536;2023-10-09T11:45:25;100128.25;;;19.48;74.21
51807;BME280;37865;51.304;9.536;2023-10-09T11:47:54;100135.72;;;19.34;74.35
51807;BME280;37865;51.304;9.536;2023-10-09T11:53:08;100138.09;;;19.21;74.87
51807;BME280;37865;51.304;9.536;2023-10-09T11:55:36;100144.06;;;19.28;75.13
51807;BME280;37865;51.304;9.536;2023-10-09T11:58:02;100139.03;;;19.31;75.01
51807;BME280;37865;51.304;9.536;2023-10-09T12:00:30;100154.75;;;19.35;75.02
51807;BME280;37865;51.304;9.536;2023-10-09T12:02:55;100156.97;;;19.33;74.88
51807;BME280;37865;51.304;9.536;2023-10-09T12:05:21;100143.75;;;19.30;74.93
51807;BME280;37865;51.304;9.536;2023-10-09T12:07:46;100140.19;;;19.30;75.12
51807;BME280;37865;51.304;9.536;2023-10-09T12:10:12;100153.94;;;19.16;75.74
51807;BME280;37865;51.304;9.536;2023-10-09T12:12:39;100151.41;;;19.19;75.94
51807;BME280;37865;51.304;9.536;2023-10-09T12:15:05;100153.88;;;19.21;75.98
51807;BME280;37865;51.304;9.536;2023-10-09T12:17:30;100160.63;;;19.28;75.90
51807;BME280;37865;51.304;9.536;2023-10-09T12:19:55;100158.19;;;19.27;75.91
51807;BME280;37865;51.304;9.536;2023-10-09T12:22:21;100158.25;;;19.22;76.12
51807;BME280;37865;51.304;9.536;2023-10-09T12:24:47;100164.63;;;19.22;76.05
51807;BME280;37865;51.304;9.536;2023-10-09T12:27:12;100162.50;;;19.33;75.96
51807;BME280;37865;51.304;9.536;2023-10-09T12:29:37;100170.44;;;19.40;75.91
51807;BME280;37865;51.304;9.536;2023-10-09T12:32:03;100161.13;;;19.49;75.50
51807;BME280;37865;51.304;9.536;2023-10-09T12:34:29;100170.19;;;19.55;75.22
51807;BME280;37865;51.304;9.536;2023-10-09T12:36:59;100163.13;;;19.62;74.80
51807;BME280;37865;51.304;9.536;2023-10-09T12:39:27;100163.34;;;19.79;74.31
51807;BME280;37865;51.304;9.536;2023-10-09T12:41:58;100173.41;;;19.89;73.83
51807;BME280;37865;51.304;9.536;2023-10-09T12:44:27;100171.44;;;20.03;73.53
51807;BME280;37865;51.304;9.536;2023-10-09T12:46:52;100171.78;;;20.15;73.21
51807;BME280;37865;51.304;9.536;2023-10-09T12:49:21;100159.19;;;20.23;72.78
51807;BME280;37865;51.304;9.536;2023-10-09T12:51:52;100159.88;;;20.28;72.71
51807;BME280;37865;51.304;9.536;2023-10-09T12:54:18;100156.81;;;20.43;72.15
51807;BME280;37865;51.304;9.536;2023-10-09T12:56:45;100148.09;;;20.36;72.00
51807;BME280;37865;51.304;9.536;2023-10-09T12:59:13;100154.16;;;20.25;72.20
51807;BME280;37865;51.304;9.536;2023-10-09T13:01:40;100149.22;;;20.22;72.65
51807;BME280;37865;51.304;9.536;2023-10-09T13:04:08;100155.47;;;20.14;73.16
51807;BME280;37865;51.304;9.536;2023-10-09T13:06:36;100154.94;;;20.12;73.37
51807;BME280;37865;51.304;9.536;2023-10-09T13:09:08;100157.22;;;20.10;73.60
51807;BME280;37865;51.304;9.536;2023-10-09T13:11:33;100150.97;;;20.04;73.75
51807;BME280;37865;51.304;9.536;2023-10-09T13:14:01;100150.34;;;19.93;74.04
51807;BME280;37865;51.304;9.536;2023-10-09T13:16:36;100146.22;;;19.91;74.38
51807;BME280;37865;51.304;9.536;2023-10-09T13:19:02;100146.84;;;20.01;74.43
51807;BME280;37865;51.304;9.536;2023-10-09T13:21:34;100137.22;;;20.13;74.04
51807;BME280;37865;51.304;9.536;2023-10-09T13:24:02;100147.38;;;20.17;73.50
51807;BME280;37865;51.304;9.536;2023-10-09T13:26:27;100145.34;;;20.23;73.47
51807;BME280;37865;51.304;9.536;2023-10-09T13:28:55;100144.00;;;20.20;73.84
51807;BME280;37865;51.304;9.536;2023-10-09T13:31:21;100151.38;;;20.25;73.56
51807;BME280;37865;51.304;9.536;2023-10-09T13:33:46;100146.56;;;20.30;73.65
51807;BME280;37865;51.304;9.536;2023-10-09T13:36:12;100160.91;;;20.32;73.59
51807;BME280;37865;51.304;9.536;2023-10-09T13:38:51;100156.00;;;20.29;73.57